createdAt,value
2023-04-07T00:01:55.818Z,80.95
2023-04-07T00:04:23.498Z,81.08
2023-04-07T00:06:51.186Z,81.52
2023-04-07T00:09:18.703Z,82.52
2023-04-07T00:11:46.211Z,82.04
2023-04-07T00:14:13.690Z,81.40
2023-04-07T00:16:41.262Z,82.80
2023-04-07T00:19:10.105Z,82.88
2023-04-07T00:21:37.571Z,81.77
2023-04-07T00:24:05.402Z,81.58
2023-04-07T00:26:33.009Z,81.29
2023-04-07T00:29:00.654Z,80.78
2023-04-07T00:31:28.175Z,80.94
2023-04-07T00:33:56.158Z,81.19
2023-04-07T00:36:25.983Z,81.38
2023-04-07T00:38:53.495Z,81.84
2023-04-07T00:41:21.008Z,81.86
2023-04-07T00:43:48.480Z,82.29
2023-04-07T00:46:16.030Z,81.99
2023-04-07T00:48:43.571Z,82.06
2023-04-07T00:51:11.191Z,82.72
2023-04-07T00:53:41.533Z,82.77
2023-04-07T00:56:09.311Z,82.62
2023-04-07T00:58:36.798Z,81.58
2023-04-07T01:01:09.445Z,81.84
2023-04-07T01:03:44.105Z,82.78
2023-04-07T01:06:15.671Z,82.69
2023-04-07T01:08:52.614Z,82.86
2023-04-07T01:11:25.478Z,83.85
2023-04-07T01:13:54.742Z,84.38
2023-04-07T01:16:28.108Z,85.05
2023-04-07T01:18:58.312Z,84.57
2023-04-07T01:21:29.595Z,84.18
2023-04-07T01:24:17.121Z,84.01
2023-04-07T01:26:44.817Z,83.36
2023-04-07T01:29:24.906Z,83.11
2023-04-07T01:31:53.350Z,83.23
2023-04-07T01:34:21.864Z,83.33
2023-04-07T01:36:51.518Z,84.21
2023-04-07T01:39:20.000Z,85.31
2023-04-07T01:41:48.666Z,85.18
2023-04-07T01:44:16.753Z,84.97
2023-04-07T01:46:45.757Z,84.43
2023-04-07T01:49:14.274Z,84.95
2023-04-07T01:51:43.288Z,85.87
2023-04-07T01:54:10.858Z,87.08
2023-04-07T01:56:38.340Z,85.33
2023-04-07T01:59:05.991Z,84.30
2023-04-07T02:01:33.731Z,85.43
2023-04-07T02:04:12.337Z,87.06
2023-04-07T02:06:45.605Z,88.33
2023-04-07T02:09:17.690Z,87.05
2023-04-07T02:11:46.185Z,85.58
2023-04-07T02:14:15.569Z,85.28
2023-04-07T02:16:45.775Z,85.41
2023-04-07T02:19:16.541Z,84.66
2023-04-07T02:21:46.048Z,86.10
2023-04-07T02:24:13.695Z,85.51
2023-04-07T02:26:41.774Z,86.59
2023-04-07T02:29:09.343Z,88.08
2023-04-07T02:31:36.883Z,87.81
2023-04-07T02:34:04.474Z,86.05
2023-04-07T02:36:33.259Z,85.60
2023-04-07T02:39:00.857Z,85.22
2023-04-07T02:41:28.422Z,85.99
2023-04-07T02:43:56.065Z,85.76
2023-04-07T02:46:23.804Z,86.43
2023-04-07T02:48:51.787Z,86.48
2023-04-07T02:51:19.247Z,88.65
2023-04-07T02:53:48.048Z,88.05
2023-04-07T02:56:16.582Z,88.71
2023-04-07T02:58:44.072Z,87.87
2023-04-07T03:01:11.815Z,87.62
2023-04-07T03:03:42.242Z,86.92
2023-04-07T03:06:09.859Z,87.46
2023-04-07T03:08:37.315Z,87.30
2023-04-07T03:11:06.287Z,86.97
2023-04-07T03:13:33.746Z,88.36
2023-04-07T03:16:01.234Z,87.45
2023-04-07T03:18:28.709Z,88.72
2023-04-07T03:20:56.348Z,87.82
2023-04-07T03:23:24.532Z,86.93
2023-04-07T03:25:51.988Z,86.53
2023-04-07T03:28:21.178Z,86.91
2023-04-07T03:30:48.692Z,87.02
2023-04-07T03:33:16.205Z,88.10
2023-04-07T03:35:43.793Z,87.22
2023-04-07T03:38:11.288Z,86.54
2023-04-07T03:40:38.774Z,86.75
2023-04-07T03:43:06.472Z,86.48
2023-04-07T03:45:35.826Z,86.31
2023-04-07T03:48:03.319Z,87.00
2023-04-07T03:50:30.986Z,87.94
2023-04-07T03:52:58.439Z,88.06
2023-04-07T03:55:25.993Z,88.55
2023-04-07T03:57:53.466Z,87.93
2023-04-07T04:00:21.102Z,87.91
2023-04-07T04:02:50.013Z,89.06
2023-04-07T04:05:17.736Z,88.71
2023-04-07T04:07:45.214Z,88.65
2023-04-07T04:10:12.669Z,88.39
2023-04-07T04:12:41.566Z,87.65
2023-04-07T04:15:10.355Z,86.76
2023-04-07T04:17:37.872Z,87.54
2023-04-07T04:20:08.093Z,89.83
2023-04-07T04:22:35.911Z,93.22
2023-04-07T04:25:03.624Z,94.16
2023-04-07T04:27:31.646Z,93.13
2023-04-07T04:29:59.125Z,89.50
2023-04-07T04:32:26.765Z,86.88
2023-04-07T04:34:54.277Z,86.78
2023-04-07T04:37:23.078Z,86.52
2023-04-07T04:39:50.657Z,87.34
2023-04-07T04:42:18.442Z,87.34
2023-04-07T04:44:45.958Z,87.69
2023-04-07T04:47:13.462Z,87.07
2023-04-07T04:49:41.187Z,86.60
2023-04-07T04:52:08.643Z,84.63
2023-04-07T04:54:37.449Z,83.26
2023-04-07T04:57:05.010Z,81.96
2023-04-07T04:59:32.505Z,83.10
2023-04-07T05:02:00.242Z,84.54
2023-04-07T05:04:28.484Z,83.50
2023-04-07T05:06:56.252Z,79.27
2023-04-07T05:09:23.731Z,80.31
2023-04-07T05:11:52.525Z,75.26
2023-04-07T05:14:19.995Z,74.05
2023-04-07T05:16:47.488Z,66.50
2023-04-07T05:19:15.097Z,64.71
2023-04-07T05:21:42.558Z,61.56
2023-04-07T05:24:10.053Z,58.81
2023-04-07T05:26:37.542Z,59.79
2023-04-07T05:29:06.351Z,60.37
2023-04-07T05:31:35.934Z,58.43
2023-04-07T05:34:03.529Z,55.21
2023-04-07T05:36:31.503Z,49.95
2023-04-07T05:38:59.011Z,49.91
2023-04-07T05:41:26.986Z,47.63
2023-04-07T05:43:54.485Z,46.92
2023-04-07T05:46:23.333Z,44.98
2023-04-07T05:48:50.923Z,43.13
2023-04-07T05:51:18.491Z,42.27
2023-04-07T05:53:46.001Z,41.55
2023-04-07T05:56:13.461Z,39.99
2023-04-07T05:58:41.253Z,37.43
2023-04-07T06:01:08.755Z,36.25
2023-04-07T06:03:37.882Z,35.33
2023-04-07T06:06:05.934Z,33.35
2023-04-07T06:08:33.562Z,33.19
2023-04-07T06:11:01.726Z,31.33
2023-04-07T06:13:29.206Z,31.27
2023-04-07T06:15:57.007Z,30.93
2023-04-07T06:18:24.560Z,30.12
2023-04-07T06:20:53.367Z,30.34
2023-04-07T06:23:20.895Z,29.63
2023-04-07T06:25:51.776Z,30.91
2023-04-07T06:28:19.525Z,31.04
2023-04-07T06:30:47.687Z,32.25
2023-04-07T06:33:15.345Z,34.57
2023-04-07T06:35:43.315Z,35.73
2023-04-07T06:38:12.446Z,36.67
2023-04-07T06:40:39.912Z,36.12
2023-04-07T06:43:07.378Z,35.08
2023-04-07T06:45:34.847Z,34.65
2023-04-07T06:48:02.380Z,34.30
2023-04-07T06:50:29.904Z,33.78
2023-04-07T06:52:57.413Z,33.20
2023-04-07T06:55:27.166Z,32.66
2023-04-07T06:57:54.657Z,32.29
2023-04-07T07:00:22.938Z,31.77
2023-04-07T07:02:50.763Z,30.53
2023-04-07T07:05:18.385Z,29.61
2023-04-07T07:07:45.875Z,29.27
2023-04-07T07:10:13.399Z,28.64
2023-04-07T07:12:42.235Z,28.26
2023-04-07T07:15:10.488Z,28.32
2023-04-07T07:17:37.972Z,27.93
2023-04-07T07:20:06.652Z,26.64
2023-04-07T07:22:34.257Z,27.33
2023-04-07T07:25:01.794Z,27.18
2023-04-07T07:27:29.269Z,27.37
2023-04-07T07:29:58.063Z,27.99
2023-04-07T07:32:25.666Z,28.51
2023-04-07T07:34:53.127Z,29.28
2023-04-07T07:37:20.585Z,29.67
2023-04-07T07:39:48.058Z,29.58
2023-04-07T07:42:15.645Z,30.05
2023-04-07T07:44:43.229Z,30.04
2023-04-07T07:47:12.469Z,28.54
2023-04-07T07:49:40.455Z,28.46
2023-04-07T07:52:09.872Z,27.81
2023-04-07T07:54:37.825Z,28.65
2023-04-07T07:57:06.165Z,28.64
2023-04-07T07:59:33.837Z,28.20
2023-04-07T08:02:01.445Z,27.62
2023-04-07T08:04:30.376Z,26.84
2023-04-07T08:06:58.215Z,25.92
2023-04-07T08:09:26.100Z,26.07
2023-04-07T08:11:53.556Z,26.24
2023-04-07T08:14:21.254Z,26.00
2023-04-07T08:16:48.742Z,25.44
2023-04-07T08:19:16.246Z,27.17
2023-04-07T08:21:45.021Z,26.30
2023-04-07T08:24:12.505Z,28.11
2023-04-07T08:26:39.940Z,27.29
2023-04-07T08:29:07.395Z,26.10
2023-04-07T08:31:34.923Z,25.20
2023-04-07T08:34:02.392Z,23.60
2023-04-07T08:36:30.106Z,24.63
2023-04-07T08:39:01.186Z,27.39
2023-04-07T08:41:37.236Z,28.95
2023-04-07T08:44:05.423Z,29.13
2023-04-07T08:46:34.423Z,28.14
2023-04-07T08:49:02.923Z,27.95
2023-04-07T08:51:32.764Z,28.72
2023-04-07T08:54:07.638Z,27.98
2023-04-07T08:56:35.251Z,26.74
2023-04-07T08:59:03.065Z,27.29
2023-04-07T09:01:31.552Z,29.02
2023-04-07T09:03:59.855Z,30.33
2023-04-07T09:06:27.695Z,29.34
2023-04-07T09:08:55.406Z,28.36
2023-04-07T09:11:24.679Z,27.94
2023-04-07T09:13:52.178Z,27.86
2023-04-07T09:16:20.278Z,26.26
2023-04-07T09:18:47.935Z,26.96
2023-04-07T09:21:15.904Z,26.37
2023-04-07T09:23:44.099Z,24.97
2023-04-07T09:26:24.710Z,24.84
2023-04-07T09:28:54.289Z,24.73
2023-04-07T09:31:22.355Z,24.57
2023-04-07T09:33:50.828Z,24.49
2023-04-07T09:36:18.374Z,23.92
2023-04-07T09:38:46.853Z,23.93
2023-04-07T09:41:17.534Z,25.80
2023-04-07T09:43:48.284Z,24.81
2023-04-07T09:46:16.955Z,25.91
2023-04-07T09:48:45.883Z,26.38
2023-04-07T09:51:15.066Z,25.85
2023-04-07T09:53:48.510Z,25.34
2023-04-07T09:56:17.414Z,26.49
2023-04-07T09:58:47.671Z,27.53
2023-04-07T10:01:17.867Z,27.49
2023-04-07T10:03:47.320Z,26.95
2023-04-07T10:06:16.474Z,27.19
2023-04-07T10:08:44.763Z,26.33
2023-04-07T10:11:12.330Z,26.77
2023-04-07T10:13:41.946Z,29.38
2023-04-07T10:16:11.092Z,28.01
2023-04-07T10:18:40.069Z,28.84
2023-04-07T10:21:09.270Z,27.42
2023-04-07T10:23:54.682Z,26.43
2023-04-07T10:26:27.357Z,27.05
2023-04-07T10:28:59.957Z,25.63
2023-04-07T10:31:29.237Z,24.59
2023-04-07T10:33:57.541Z,25.09
2023-04-07T10:36:25.292Z,25.90
2023-04-07T10:39:20.755Z,27.33
2023-04-07T10:41:48.242Z,26.99
2023-04-07T10:44:48.239Z,26.86
2023-04-07T10:47:17.337Z,25.77
2023-04-07T10:50:16.703Z,25.14
2023-04-07T10:52:44.477Z,24.80
2023-04-07T10:55:45.581Z,24.07
2023-04-07T10:58:23.900Z,25.01
2023-04-07T11:01:30.166Z,23.96
2023-04-07T11:04:02.113Z,23.60
2023-04-07T11:06:29.908Z,24.25
2023-04-07T11:08:57.379Z,22.68
2023-04-07T11:11:39.389Z,22.26
2023-04-07T11:14:07.210Z,22.18
2023-04-07T11:16:43.401Z,23.96
2023-04-07T11:19:12.331Z,26.08
2023-04-07T11:21:40.166Z,27.50
2023-04-07T11:24:07.765Z,28.46
2023-04-07T11:26:40.061Z,28.90
2023-04-07T11:29:07.925Z,30.01
2023-04-07T11:31:35.539Z,30.35
2023-04-07T11:34:04.791Z,31.05
2023-04-07T11:36:35.365Z,30.82
2023-04-07T11:39:03.910Z,30.73
2023-04-07T11:41:33.878Z,29.75
2023-04-07T11:44:08.594Z,28.00
2023-04-07T11:46:36.978Z,27.07
2023-04-07T11:49:10.729Z,26.91
2023-04-07T11:51:39.540Z,25.78
2023-04-07T11:54:07.091Z,26.42
2023-04-07T11:56:45.655Z,28.07
2023-04-07T11:59:22.648Z,27.60
2023-04-07T12:01:51.657Z,25.85
2023-04-07T12:04:20.109Z,27.42
2023-04-07T12:06:50.247Z,27.42
2023-04-07T12:09:29.492Z,28.20
2023-04-07T12:11:58.081Z,28.03
2023-04-07T12:14:26.280Z,28.03
2023-04-07T12:16:56.314Z,29.26
2023-04-07T12:19:24.259Z,28.76
2023-04-07T12:21:53.085Z,28.11
2023-04-07T12:24:21.261Z,28.25
2023-04-07T12:26:49.143Z,28.50
2023-04-07T12:29:19.792Z,29.30
2023-04-07T12:31:50.092Z,29.34
2023-04-07T12:34:18.529Z,27.62
2023-04-07T12:36:45.983Z,27.63
2023-04-07T12:39:15.017Z,27.51
2023-04-07T12:41:42.464Z,28.54
2023-04-07T12:44:10.725Z,29.01
2023-04-07T12:46:38.284Z,29.24
2023-04-07T12:49:05.820Z,30.43
2023-04-07T12:51:34.365Z,31.27
2023-04-07T12:54:02.097Z,31.21
2023-04-07T12:56:31.497Z,31.72
2023-04-07T12:58:58.950Z,30.77
2023-04-07T13:01:27.120Z,29.99
2023-04-07T13:03:54.812Z,29.65
2023-04-07T13:06:22.416Z,29.31
2023-04-07T13:08:49.891Z,29.10
2023-04-07T13:11:17.353Z,29.06
2023-04-07T13:13:46.183Z,30.40
2023-04-07T13:16:13.896Z,32.06
2023-04-07T13:18:41.751Z,32.35
2023-04-07T13:23:43.357Z,30.78
2023-04-07T13:26:11.741Z,28.19
2023-04-07T13:28:39.751Z,28.63
2023-04-07T13:31:10.828Z,27.70
2023-04-07T13:33:38.389Z,26.87
2023-04-07T13:36:05.878Z,28.23
2023-04-07T13:38:33.362Z,29.24
2023-04-07T13:41:00.816Z,31.82
2023-04-07T13:43:28.243Z,33.02
2023-04-07T13:45:56.395Z,34.68
2023-04-07T13:48:25.466Z,34.54
2023-04-07T13:50:52.961Z,33.94
2023-04-07T13:53:21.600Z,33.20
2023-04-07T13:55:49.041Z,34.36
2023-04-07T13:58:16.824Z,35.37
2023-04-07T14:00:44.342Z,34.64
2023-04-07T14:03:12.001Z,33.99
2023-04-07T14:05:40.942Z,32.33
2023-04-07T14:08:08.431Z,34.26
2023-04-07T14:10:36.331Z,34.06
2023-04-07T14:13:03.877Z,34.48
2023-04-07T14:15:31.404Z,34.30
2023-04-07T14:17:59.793Z,32.18
2023-04-07T14:20:27.615Z,30.93
2023-04-07T14:22:56.671Z,29.76
2023-04-07T14:25:24.118Z,28.44
2023-04-07T14:27:52.187Z,27.97
2023-04-07T14:30:19.762Z,29.75
2023-04-07T14:32:47.362Z,32.99
2023-04-07T14:35:15.547Z,34.63
2023-04-07T14:37:42.992Z,33.51
2023-04-07T14:40:12.625Z,35.57
2023-04-07T14:42:40.068Z,36.10
2023-04-07T14:45:08.896Z,32.99
2023-04-07T14:47:36.396Z,30.95
2023-04-07T14:50:03.896Z,29.37
2023-04-07T14:52:32.361Z,30.04
2023-04-07T14:55:00.437Z,31.61
2023-04-07T14:57:29.366Z,37.93
2023-04-07T14:59:56.818Z,37.94
2023-04-07T15:02:24.501Z,38.32
2023-04-07T15:04:52.431Z,35.85
2023-04-07T15:07:19.935Z,34.75
2023-04-07T15:09:49.057Z,35.11
2023-04-07T15:12:16.552Z,36.41
2023-04-07T15:14:45.860Z,35.29
2023-04-07T15:17:13.523Z,34.25
2023-04-07T15:19:41.027Z,32.01
2023-04-07T15:22:08.481Z,30.26
2023-04-07T15:24:35.941Z,29.16
2023-04-07T15:27:03.431Z,32.60
2023-04-07T15:29:30.876Z,34.39
2023-04-07T15:31:59.764Z,32.56
2023-04-07T15:34:27.258Z,32.46
2023-04-07T15:36:54.710Z,34.88
2023-04-07T15:39:22.182Z,36.03
2023-04-07T15:41:49.601Z,34.42
2023-04-07T15:44:19.588Z,35.89
2023-04-07T15:46:47.262Z,37.10
2023-04-07T15:49:20.110Z,37.12
2023-04-07T15:51:47.608Z,36.91
2023-04-07T15:54:15.286Z,37.16
2023-04-07T15:56:42.742Z,37.96
2023-04-07T15:59:10.236Z,38.46
2023-04-07T16:01:38.477Z,40.34
2023-04-07T16:04:06.210Z,38.49
2023-04-07T16:06:35.381Z,38.86
2023-04-07T16:09:03.364Z,40.07
2023-04-07T16:11:30.837Z,37.18
2023-04-07T16:13:58.301Z,35.96
2023-04-07T16:16:26.005Z,36.85
2023-04-07T16:18:53.497Z,35.86
2023-04-07T16:21:20.961Z,37.56
2023-04-07T16:23:49.922Z,37.85
2023-04-07T16:26:17.418Z,36.50
2023-04-07T16:28:44.900Z,35.27
2023-04-07T16:31:12.359Z,35.17
2023-04-07T16:33:40.097Z,35.18
2023-04-07T16:36:07.887Z,35.22
2023-04-07T16:38:35.444Z,36.26
2023-04-07T16:41:04.985Z,34.23
2023-04-07T16:43:32.582Z,33.83
2023-04-07T16:46:00.865Z,33.02
2023-04-07T16:48:28.484Z,33.16
2023-04-07T16:50:55.939Z,34.02
2023-04-07T16:53:23.404Z,33.86
2023-04-07T16:55:50.867Z,34.62
2023-04-07T16:58:19.728Z,36.37
2023-04-07T17:00:47.280Z,39.75
2023-04-07T17:03:15.687Z,42.24
2023-04-07T17:05:44.535Z,43.84
2023-04-07T17:08:12.189Z,44.97
2023-04-07T17:10:39.656Z,46.01
2023-04-07T17:13:07.105Z,46.97
2023-04-07T17:15:38.681Z,46.86
2023-04-07T17:18:06.519Z,47.29
2023-04-07T17:20:34.113Z,48.42
2023-04-07T17:23:01.647Z,48.51
2023-04-07T17:25:29.105Z,48.45
2023-04-07T17:27:56.630Z,49.72
2023-04-07T17:30:24.120Z,50.61
2023-04-07T17:32:53.426Z,51.53
2023-04-07T17:35:21.814Z,51.52
2023-04-07T17:37:49.425Z,52.10
2023-04-07T17:40:16.884Z,54.54
2023-04-07T17:42:44.641Z,54.91
2023-04-07T17:45:12.597Z,54.86
2023-04-07T17:47:40.296Z,54.25
2023-04-07T17:50:10.625Z,55.23
2023-04-07T17:52:38.630Z,55.98
2023-04-07T17:55:07.884Z,58.47
2023-04-07T17:57:36.612Z,59.22
2023-04-07T18:00:04.428Z,60.25
2023-04-07T18:02:32.315Z,60.21
2023-04-07T18:05:01.431Z,56.90
2023-04-07T18:07:30.995Z,55.45
2023-04-07T18:09:58.868Z,54.84
2023-04-07T18:12:26.513Z,53.94
2023-04-07T18:14:54.007Z,53.89
2023-04-07T18:17:21.486Z,53.21
2023-04-07T18:19:49.291Z,53.98
2023-04-07T18:22:17.914Z,55.36
2023-04-07T18:24:46.714Z,56.96
2023-04-07T18:27:14.275Z,57.28
2023-04-07T18:29:41.748Z,58.62
2023-04-07T18:32:09.343Z,59.21
2023-04-07T18:34:36.821Z,60.54
2023-04-07T18:37:04.592Z,60.86
2023-04-07T18:39:32.063Z,62.23
2023-04-07T18:42:00.895Z,63.09
2023-04-07T18:44:28.345Z,65.05
2023-04-07T18:46:56.220Z,67.26
2023-04-07T18:49:24.340Z,69.19
2023-04-07T18:51:52.707Z,69.90
2023-04-07T18:54:21.134Z,69.69
2023-04-07T18:56:49.029Z,71.90
2023-04-07T18:59:17.830Z,77.50
2023-04-07T19:01:45.439Z,88.11
2023-04-07T19:04:12.991Z,92.07
2023-04-07T19:06:40.467Z,90.84
2023-04-07T19:09:07.970Z,88.87
2023-04-07T19:11:35.953Z,87.46
2023-04-07T19:14:04.354Z,87.02
2023-04-07T19:16:35.047Z,88.01
2023-04-07T19:19:02.797Z,89.24
2023-04-07T19:21:30.990Z,89.90
2023-04-07T19:23:59.453Z,90.46
2023-04-07T19:26:27.789Z,90.96
2023-04-07T19:28:56.622Z,91.79
2023-04-07T19:31:24.950Z,90.30
2023-04-07T19:33:53.791Z,90.46
2023-04-07T19:36:21.308Z,90.50
2023-04-07T19:38:48.774Z,89.54
2023-04-07T19:41:16.539Z,88.64
2023-04-07T19:43:43.989Z,88.61
2023-04-07T19:46:11.560Z,89.80
2023-04-07T19:48:39.966Z,89.94
2023-04-07T19:51:08.950Z,90.09
2023-04-07T19:53:36.405Z,89.48
2023-04-07T19:56:04.579Z,89.75
2023-04-07T19:58:34.360Z,89.89
2023-04-07T20:01:04.414Z,89.44
2023-04-07T20:03:32.416Z,88.79
2023-04-07T20:05:59.963Z,89.16
2023-04-07T20:08:28.774Z,88.28
2023-04-07T20:10:56.220Z,88.46
2023-04-07T20:13:23.867Z,88.48
2023-04-07T20:15:51.360Z,87.92
2023-04-07T20:18:19.268Z,85.92
2023-04-07T20:20:47.258Z,86.83
2023-04-07T20:23:16.193Z,88.46
2023-04-07T20:25:44.984Z,89.51
2023-04-07T20:28:12.426Z,89.77
2023-04-07T20:30:40.113Z,89.14
2023-04-07T20:33:08.108Z,88.59
2023-04-07T20:35:35.986Z,88.33
2023-04-07T20:38:03.527Z,87.43
2023-04-07T20:40:31.738Z,84.40
2023-04-07T20:43:00.528Z,86.94
2023-04-07T20:45:28.157Z,86.98
2023-04-07T20:47:56.498Z,88.15
2023-04-07T20:50:24.224Z,87.10
2023-04-07T20:52:52.591Z,84.19
2023-04-07T20:55:20.922Z,82.37
2023-04-07T20:57:48.478Z,81.81
2023-04-07T21:00:19.040Z,84.66
2023-04-07T21:02:46.886Z,83.44
2023-04-07T21:05:14.608Z,91.71
2023-04-07T21:07:42.220Z,100.00
2023-04-07T21:10:10.757Z,98.67
2023-04-07T21:12:39.292Z,92.39
2023-04-07T21:15:07.647Z,92.37
2023-04-07T21:17:36.484Z,93.70
2023-04-07T21:20:04.414Z,96.04
2023-04-07T21:22:31.901Z,94.59
2023-04-07T21:24:59.362Z,93.50
2023-04-07T21:27:26.834Z,93.22
2023-04-07T21:29:54.288Z,94.26
2023-04-07T21:32:22.034Z,94.68
2023-04-07T21:34:53.786Z,93.24
2023-04-07T21:37:22.898Z,91.84
2023-04-07T21:39:53.512Z,89.57
2023-04-07T21:42:21.001Z,87.87
2023-04-07T21:44:49.053Z,87.19
2023-04-07T21:47:17.468Z,84.30
2023-04-07T21:49:44.941Z,82.86
2023-04-07T21:52:13.737Z,82.93
2023-04-07T21:54:41.231Z,84.18
2023-04-07T21:57:08.724Z,89.30
2023-04-07T21:59:37.172Z,89.49
2023-04-07T22:02:04.756Z,87.71
2023-04-07T22:04:32.468Z,81.52
2023-04-07T22:07:00.646Z,78.94
2023-04-07T22:09:29.512Z,74.82
2023-04-07T22:11:57.204Z,72.21
2023-04-07T22:14:26.427Z,72.50
2023-04-07T22:16:53.980Z,74.20
2023-04-07T22:19:21.533Z,76.58
2023-04-07T22:21:49.416Z,77.07
2023-04-07T22:24:16.983Z,76.89
2023-04-07T22:26:45.769Z,75.64
2023-04-07T22:29:13.239Z,76.50
2023-04-07T22:31:40.700Z,79.30
2023-04-07T22:34:08.900Z,79.67
2023-04-07T22:36:36.618Z,78.19
2023-04-07T22:39:04.602Z,78.62
2023-04-07T22:41:32.121Z,78.18
2023-04-07T22:44:01.034Z,79.14
2023-04-07T22:46:28.535Z,79.15
2023-04-07T22:48:56.348Z,77.69
2023-04-07T22:51:23.873Z,76.09
2023-04-07T22:53:51.380Z,74.61
2023-04-07T22:56:19.194Z,74.36
2023-04-07T22:58:46.673Z,73.00
2023-04-07T23:01:15.611Z,73.75
2023-04-07T23:03:43.324Z,73.76
2023-04-07T23:06:11.048Z,73.68
2023-04-07T23:08:38.532Z,71.48
2023-04-07T23:11:09.501Z,72.81
2023-04-07T23:13:37.993Z,73.26
2023-04-07T23:16:06.329Z,71.13
2023-04-07T23:18:35.250Z,72.27
2023-04-07T23:21:02.694Z,69.65
2023-04-07T23:23:30.302Z,69.44
2023-04-07T23:25:57.804Z,68.58
2023-04-07T23:28:25.355Z,67.99
2023-04-07T23:30:52.835Z,69.18
2023-04-07T23:33:20.398Z,70.19
2023-04-07T23:35:49.271Z,69.87
2023-04-07T23:38:17.094Z,69.94
2023-04-07T23:40:44.598Z,68.53
2023-04-07T23:43:12.055Z,69.09
2023-04-07T23:45:39.578Z,67.16
2023-04-07T23:48:07.485Z,67.01
2023-04-07T23:50:35.002Z,67.99
2023-04-07T23:53:04.021Z,68.10
2023-04-07T23:55:31.488Z,66.55
2023-04-07T23:57:58.958Z,67.25
